• Join FlightAware (Why Join?)
  • Login
  • US Flag 
02:07AM EDT


 

Airport Tracker/Info


-or-


 

Live Flight TrackerFlight Track Log ✈ N832R ✈ 16-Apr-2014 ✈ KPWA - KEKM

Flight Track Log - Related Links

Times and Time Zones

All times are in EDT time to prevent confusion due to time zone crossing. See the N832R flight status page for this flight to view local times or setup timezone preferences in your user account.

Time Position Orientation Groundspeed Altitude Reporting Facility
EDT Latitude Longitude Course Direction KTS MPH feet Rate Location/Type
02:13PM 35.5267 -97.6475 197° South 150 173 2,000  Level Fort Worth Center
02:14PM 35.4903 -97.6614 197° South 199 229 4,800 4,140 Climbing Fort Worth Center
02:15PM 35.4581 -97.6306 142° Southeast 223 257 7,800 3,420 Climbing Fort Worth Center
02:16PM 35.4589 -97.5514 89° East 272 313 10,700 3,060 Climbing Fort Worth Center
02:17PM 35.4650 -97.4483 86° East 294 338 14,200 3,300 Climbing Fort Worth Center
02:18PM 35.4822 -97.3350 79° East 328 377 17,600 3,180 Climbing Fort Worth Center
02:19PM 35.5436 -97.2150 58° Northeast 343 395 20,800 2,760 Climbing Fort Worth Center
02:20PM 35.5956 -97.1064 60° Northeast 366 421 23,400 2,400 Climbing Fort Worth Center
02:21PM 35.6472 -96.9942 60° Northeast 374 430 25,800 2,160 Climbing Fort Worth Center
02:22PM 35.7008 -96.8792 60° Northeast 384 442 28,000 1,920 Climbing Fort Worth Center
02:23PM 35.7553 -96.7617 60° Northeast 396 456 29,800 1,740 Climbing Fort Worth Center
02:24PM 35.8108 -96.6425 60° Northeast 399 459 31,700 1,920 Climbing Fort Worth Center
02:25PM 35.8758 -96.4958 61° Northeast 403 464 34,000 1,680 Climbing Kansas City Center
02:26PM 35.9336 -96.3711 60° Northeast 410 472 35,400 960 Climbing Kansas City Center
02:27PM 35.9914 -96.2422 61° Northeast 424 488 36,000 600 Climbing Kansas City Center
02:28PM 36.0661 -96.0778 61° Northeast 453 521 36,700 840 Climbing Kansas City Center
02:29PM 36.1281 -95.9411 61° Northeast 456 525 37,800 1,080 Climbing Kansas City Center
02:30PM 36.1886 -95.8067 61° Northeast 453 521 39,000 1,080 Climbing Kansas City Center
02:31PM 36.2592 -95.6914 53° Northeast 439 505 40,100 960 Climbing Kansas City Center
02:32PM 36.3339 -95.5764 51° Northeast 434 499 41,000 420 Climbing Kansas City Center
02:33PM 36.4078 -95.4581 52° Northeast 433 498 41,000  Level Kansas City Center
02:35PM 36.5006 -95.3150 51° Northeast 437 503 41,000  Level Kansas City Center
02:36PM 36.5808 -95.1961 50° Northeast 445 512 41,000  Level Kansas City Center
02:37PM 36.6544 -95.0806 52° Northeast 446 513 41,000  Level Kansas City Center
02:38PM 36.7328 -94.9575 52° Northeast 450 518 41,000  Level Kansas City Center
02:39PM 36.8272 -94.8083 52° Northeast 450 518 41,000  Level Kansas City Center
02:40PM 36.9064 -94.6856 51° Northeast 451 519 41,000  Level Kansas City Center
02:41PM 36.9842 -94.5619 52° Northeast 451 519 41,000  Level Kansas City Center
02:42PM 37.0628 -94.4361 52° Northeast 453 521 41,000  Level Kansas City Center
02:43PM 37.1408 -94.3108 52° Northeast 455 524 41,000  Level Kansas City Center
02:44PM 37.2200 -94.1858 51° Northeast 455 524 41,000  Level Kansas City Center
02:45PM 37.3119 -94.0383 52° Northeast 455 524 41,000  Level Kansas City Center
02:46PM 37.3892 -93.9119 52° Northeast 455 524 41,000  Level Kansas City Center
02:47PM 37.4667 -93.7847 52° Northeast 456 525 41,000  Level Kansas City Center
02:48PM 37.5439 -93.6578 52° Northeast 455 524 41,000  Level Kansas City Center
02:49PM 37.6228 -93.5314 52° Northeast 455 524 41,000  Level Kansas City Center
02:50PM 37.7008 -93.4019 53° Northeast 458 527 41,000  Level Kansas City Center
02:51PM 37.7783 -93.2750 52° Northeast 457 526 41,000  Level Kansas City Center
02:52PM 37.8564 -93.1456 53° Northeast 458 527 41,000  Level Kansas City Center
02:53PM 37.9483 -92.9919 53° Northeast 456 525 41,000  Level Kansas City Center
02:54PM 38.0253 -92.8633 53° Northeast 456 525 41,000  Level Kansas City Center
02:55PM 38.1025 -92.7350 53° Northeast 455 524 41,000  Level Kansas City Center
02:56PM 38.1833 -92.5989 53° Northeast 455 524 41,000  Level Kansas City Center
02:57PM 38.2581 -92.4733 53° Northeast 455 524 41,000  Level Kansas City Center
02:58PM 38.3358 -92.3417 53° Northeast 456 525 41,000  Level Kansas City Center
02:59PM 38.4125 -92.2114 53° Northeast 456 525 41,000  Level Kansas City Center
03:00PM 38.4894 -92.0803 53° Northeast 456 525 41,000  Level Kansas City Center
03:01PM 38.5664 -91.9483 53° Northeast 456 525 41,000  Level Kansas City Center
03:02PM 38.6586 -91.7894 53° Northeast 457 526 41,000  Level Kansas City Center
03:03PM 38.7328 -91.6592 54° Northeast 458 527 41,000  Level Kansas City Center
03:04PM 38.8106 -91.5250 53° Northeast 464 534 41,000  Level Kansas City Center
03:06PM 38.8850 -91.3917 54° Northeast 463 533 41,000  Level Kansas City Center
03:07PM 38.9631 -91.2578 53° Northeast 464 534 41,000  Level Kansas City Center
03:08PM 39.0389 -91.1242 54° Northeast 464 534 41,000  Level Kansas City Center
03:09PM 39.1167 -90.9892 53° Northeast 464 534 41,000  Level Kansas City Center
03:10PM 39.2083 -90.8258 54° Northeast 464 534 41,000  Level Kansas City Center
03:11PM 39.2861 -90.6864 54° Northeast 476 548 41,000  Level Kansas City Center
03:12PM 39.3619 -90.5489 54° Northeast 473 544 41,000  Level Kansas City Center
03:13PM 39.4389 -90.4114 54° Northeast 473 544 41,000  Level Kansas City Center
03:14PM 39.5156 -90.2747 54° Northeast 472 543 41,000  Level Kansas City Center
03:15PM 39.5892 -90.1383 55° Northeast 467 537 41,000  Level Kansas City Center
03:16PM 39.6647 -90.0022 54° Northeast 466 536 41,000  Level Kansas City Center
03:17PM 39.7489 -89.8478 55° Northeast 465 535 41,000  Level Kansas City Center
03:18PM 39.8222 -89.7125 55° Northeast 463 533 41,000  Level Kansas City Center
03:19PM 39.8958 -89.5786 54° Northeast 462 532 41,000  Level Kansas City Center
03:20PM 39.9828 -89.4150 55° Northeast 462 532 41,000 -240 Level Kansas City Center
03:21PM 40.0572 -89.2778 55° Northeast 462 532 40,600 -600 Descending Kansas City Center
03:22PM 40.1303 -89.1394 55° Northeast 463 533 39,800 -780 Descending Chicago Center
03:23PM 40.2047 -88.9981 55° Northeast 469 540 39,000 -840 Descending Chicago Center
03:24PM 40.2931 -88.8347 55° Northeast 469 540 38,100 -900 Descending Chicago Center
03:25PM 40.3647 -88.6953 56° Northeast 462 532 37,200 -840 Descending Chicago Center
03:26PM 40.4403 -88.5522 55° Northeast 471 542 36,400 -780 Descending Chicago Center
03:27PM 40.5167 -88.4056 56° Northeast 478 550 35,600 -780 Descending Chicago Center
03:28PM 40.5919 -88.2608 56° Northeast 479 551 34,900 -840 Descending Chicago Center
03:29PM 40.6825 -88.0861 56° Northeast 484 557 33,900 -900 Descending Chicago Center
03:30PM 40.7575 -87.9408 56° Northeast 484 557 33,100 -840 Descending Chicago Center
03:31PM 40.8322 -87.7950 56° Northeast 484 557 32,200 -1,020 Descending Chicago Center
03:32PM 40.9075 -87.6453 56° Northeast 487 560 31,000 -1,440 Descending Chicago Center
03:34PM 40.9828 -87.4994 56° Northeast 487 560 29,300 -2,100 Descending Chicago Center
03:35PM 41.0697 -87.3267 56° Northeast 476 548 26,700 -2,520 Descending Chicago Center
03:36PM 41.1400 -87.1856 56° Northeast 465 535 24,100 -2,040 Descending Chicago Center
03:37PM 41.1992 -87.0478 60° Northeast 441 507 22,500 -1,800 Descending Chicago Center
03:38PM 41.2122 -86.8958 83° East 419 482 20,400 -1,380 Descending Chicago Center
03:39PM 41.2250 -86.7556 83° East 389 448 19,700 -1,320 Descending Chicago Center
03:40PM 41.2550 -86.6131 74° East 373 429 17,700 -2,340 Descending Chicago Center
03:41PM 41.3033 -86.5017 60° Northeast 350 403 14,900 -2,700 Descending Chicago Center
03:42PM 41.3492 -86.3986 59° Northeast 323 372 12,100 -2,820 Descending Chicago Center
03:43PM 41.4036 -86.2872 57° Northeast 301 346 9,100 -2,040 Descending Chicago Center
03:44PM 41.4611 -86.2239 40° Northeast 270 311 8,000 -1,380 Descending Chicago Center
03:45PM 41.5261 -86.1825 25° Northeast 262 302 6,300 -1,800 Descending Chicago Center
03:46PM 41.5914 -86.1458 23° Northeast 259 298 4,400 -1,620 Descending Chicago Center
03:47PM 41.6533 -86.1136 21° North 250 288 3,000 -1,020 Descending Chicago Center
03:48PM 41.7100 -86.0856 20° North 235 270 2,300 -900 Descending Chicago Center
03:49PM 41.7203 -86.0400 73° East 172 198 1,200 -1,080 Descending Chicago Center
03:51PM 41.7167 -86.0000 37° Northeast  Level FlightAware Approximate
03:58PM 41.7194 -86.0032 37° Northeast  Level Estimated
03:59PM 41.7167 -86.0000 37° Northeast  Level FlightAware Approximate